sensor_id;sensor_type;location;lat;lon;timestamp;pressure;altitude;pressure_sealevel;temperature;humidity
76156;BME280;64906;51.290;7.348;2022-11-20T00:01:37;98225.34;;;17.81;44.61
76156;BME280;64906;51.290;7.348;2022-11-20T00:04:02;98226.41;;;17.80;44.60
76156;BME280;64906;51.290;7.348;2022-11-20T00:06:28;98220.97;;;17.80;44.72
76156;BME280;64906;51.290;7.348;2022-11-20T00:08:56;98219.09;;;17.75;44.71
76156;BME280;64906;51.290;7.348;2022-11-20T00:11:23;98217.19;;;17.76;44.68
76156;BME280;64906;51.290;7.348;2022-11-20T00:13:51;98213.94;;;17.74;44.70
76156;BME280;64906;51.290;7.348;2022-11-20T00:16:19;98211.19;;;17.74;45.10
76156;BME280;64906;51.290;7.348;2022-11-20T00:18:45;98216.66;;;17.74;44.73
76156;BME280;64906;51.290;7.348;2022-11-20T00:21:13;98212.81;;;17.75;44.90
76156;BME280;64906;51.290;7.348;2022-11-20T00:23:39;98209.84;;;17.71;45.01
76156;BME280;64906;51.290;7.348;2022-11-20T00:26:10;98217.53;;;17.69;44.82
76156;BME280;64906;51.290;7.348;2022-11-20T00:28:36;98217.25;;;17.71;44.92
76156;BME280;64906;51.290;7.348;2022-11-20T00:31:04;98206.38;;;17.66;44.87
76156;BME280;64906;51.290;7.348;2022-11-20T00:33:29;98202.53;;;17.67;44.85
76156;BME280;64906;51.290;7.348;2022-11-20T00:36:02;98197.91;;;17.67;44.56
76156;BME280;64906;51.290;7.348;2022-11-20T00:38:29;98210.47;;;17.63;44.79
76156;BME280;64906;51.290;7.348;2022-11-20T00:41:03;98210.47;;;17.63;44.93
76156;BME280;64906;51.290;7.348;2022-11-20T00:43:28;98210.22;;;17.60;44.85
76156;BME280;64906;51.290;7.348;2022-11-20T00:45:58;98219.50;;;17.64;44.76
76156;BME280;64906;51.290;7.348;2022-11-20T00:48:23;98221.41;;;17.63;44.64
76156;BME280;64906;51.290;7.348;2022-11-20T00:50:49;98211.59;;;17.62;44.70
76156;BME280;64906;51.290;7.348;2022-11-20T00:53:14;98208.63;;;17.59;44.92
76156;BME280;64906;51.290;7.348;2022-11-20T00:55:39;98214.06;;;17.59;45.13
76156;BME280;64906;51.290;7.348;2022-11-20T00:58:05;98218.22;;;17.56;44.93
76156;BME280;64906;51.290;7.348;2022-11-20T01:00:30;98214.13;;;17.54;44.71
76156;BME280;64906;51.290;7.348;2022-11-20T01:02:56;98215.72;;;17.55;44.88
76156;BME280;64906;51.290;7.348;2022-11-20T01:05:21;98221.78;;;17.52;44.93
76156;BME280;64906;51.290;7.348;2022-11-20T01:07:46;98213.09;;;17.50;45.02
76156;BME280;64906;51.290;7.348;2022-11-20T01:10:12;98213.59;;;17.52;45.02
76156;BME280;64906;51.290;7.348;2022-11-20T01:12:37;98207.03;;;17.53;45.03
76156;BME280;64906;51.290;7.348;2022-11-20T01:15:02;98219.03;;;17.52;44.78
76156;BME280;64906;51.290;7.348;2022-11-20T01:17:28;98211.72;;;17.47;44.98
76156;BME280;64906;51.290;7.348;2022-11-20T01:19:53;98206.56;;;17.46;44.97
76156;BME280;64906;51.290;7.348;2022-11-20T01:22:18;98205.97;;;17.49;45.07
76156;BME280;64906;51.290;7.348;2022-11-20T01:24:43;98210.09;;;17.46;44.71
76156;BME280;64906;51.290;7.348;2022-11-20T01:27:09;98201.09;;;17.46;44.81
76156;BME280;64906;51.290;7.348;2022-11-20T01:29:34;98194.00;;;17.44;44.96
76156;BME280;64906;51.290;7.348;2022-11-20T01:31:59;98192.34;;;17.43;44.70
76156;BME280;64906;51.290;7.348;2022-11-20T01:34:25;98195.38;;;17.42;44.78
76156;BME280;64906;51.290;7.348;2022-11-20T01:36:51;98184.75;;;17.40;44.82
76156;BME280;64906;51.290;7.348;2022-11-20T01:39:19;98184.19;;;17.38;44.60
76156;BME280;64906;51.290;7.348;2022-11-20T01:41:45;98183.13;;;17.39;44.82
76156;BME280;64906;51.290;7.348;2022-11-20T01:47:37;98178.47;;;17.40;44.89
76156;BME280;64906;51.290;7.348;2022-11-20T01:50:24;98176.31;;;17.37;44.89
76156;BME280;64906;51.290;7.348;2022-11-20T01:53:12;98179.06;;;17.32;45.04
76156;BME280;64906;51.290;7.348;2022-11-20T01:55:43;98174.44;;;17.32;44.85
76156;BME280;64906;51.290;7.348;2022-11-20T01:58:11;98171.72;;;17.32;44.90
76156;BME280;64906;51.290;7.348;2022-11-20T02:00:37;98176.63;;;17.30;45.15
76156;BME280;64906;51.290;7.348;2022-11-20T02:03:09;98178.28;;;17.31;44.95
76156;BME280;64906;51.290;7.348;2022-11-20T02:08:26;98183.50;;;17.28;44.92
76156;BME280;64906;51.290;7.348;2022-11-20T02:10:51;98183.50;;;17.28;44.94
76156;BME280;64906;51.290;7.348;2022-11-20T02:13:17;98181.34;;;17.25;45.00
76156;BME280;64906;51.290;7.348;2022-11-20T02:16:02;98187.59;;;17.25;44.95
76156;BME280;64906;51.290;7.348;2022-11-20T02:18:28;98184.34;;;17.23;45.07
76156;BME280;64906;51.290;7.348;2022-11-20T02:20:59;98182.72;;;17.22;45.03
76156;BME280;64906;51.290;7.348;2022-11-20T02:23:38;98171.81;;;17.22;44.96
76156;BME280;64906;51.290;7.348;2022-11-20T02:26:07;98180.28;;;17.21;45.03
76156;BME280;64906;51.290;7.348;2022-11-20T02:28:34;98178.38;;;17.21;45.15
76156;BME280;64906;51.290;7.348;2022-11-20T02:31:00;98174.28;;;17.19;45.04
76156;BME280;64906;51.290;7.348;2022-11-20T02:33:25;98170.22;;;17.16;45.22
76156;BME280;64906;51.290;7.348;2022-11-20T02:35:51;98163.13;;;17.15;45.20
76156;BME280;64906;51.290;7.348;2022-11-20T02:38:16;98164.78;;;17.16;45.10
76156;BME280;64906;51.290;7.348;2022-11-20T02:40:42;98171.84;;;17.17;45.18
76156;BME280;64906;51.290;7.348;2022-11-20T02:43:07;98165.34;;;17.13;45.26
76156;BME280;64906;51.290;7.348;2022-11-20T02:45:33;98170.81;;;17.13;45.13
76156;BME280;64906;51.290;7.348;2022-11-20T02:47:58;98171.09;;;17.12;45.26
76156;BME280;64906;51.290;7.348;2022-11-20T02:50:23;98158.81;;;17.09;45.14
76156;BME280;64906;51.290;7.348;2022-11-20T02:52:49;98160.19;;;17.12;45.18
76156;BME280;64906;51.290;7.348;2022-11-20T02:55:14;98160.44;;;17.10;45.16
76156;BME280;64906;51.290;7.348;2022-11-20T02:57:39;98152.53;;;17.09;45.24
76156;BME280;64906;51.290;7.348;2022-11-20T03:00:05;98155.28;;;17.09;45.19
76156;BME280;64906;51.290;7.348;2022-11-20T03:02:32;98146.06;;;17.05;45.27
76156;BME280;64906;51.290;7.348;2022-11-20T03:04:58;98146.88;;;17.05;45.18
76156;BME280;64906;51.290;7.348;2022-11-20T03:07:23;98147.97;;;17.04;45.22
76156;BME280;64906;51.290;7.348;2022-11-20T03:09:49;98144.41;;;17.04;45.07
76156;BME280;64906;51.290;7.348;2022-11-20T03:12:14;98143.63;;;17.03;45.13
76156;BME280;64906;51.290;7.348;2022-11-20T03:14:39;98141.97;;;17.02;45.30
76156;BME280;64906;51.290;7.348;2022-11-20T03:17:04;98134.06;;;17.01;45.36
76156;BME280;64906;51.290;7.348;2022-11-20T03:19:30;98141.47;;;17.00;45.20
76156;BME280;64906;51.290;7.348;2022-11-20T03:21:55;98136.00;;;17.00;45.31
76156;BME280;64906;51.290;7.348;2022-11-20T03:24:20;98130.03;;;16.98;45.29
76156;BME280;64906;51.290;7.348;2022-11-20T03:26:46;98130.03;;;16.98;45.46
76156;BME280;64906;51.290;7.348;2022-11-20T03:29:11;98121.84;;;16.98;45.40
76156;BME280;64906;51.290;7.348;2022-11-20T03:31:38;98127.59;;;16.97;45.56
76156;BME280;64906;51.290;7.348;2022-11-20T03:34:09;98128.16;;;16.94;45.41
76156;BME280;64906;51.290;7.348;2022-11-20T03:36:40;98121.88;;;16.93;45.60
76156;BME280;64906;51.290;7.348;2022-11-20T03:39:07;98128.44;;;16.92;45.49
76156;BME280;64906;51.290;7.348;2022-11-20T03:41:37;98126.50;;;16.93;45.54
76156;BME280;64906;51.290;7.348;2022-11-20T03:44:04;98123.25;;;16.91;45.36
76156;BME280;64906;51.290;7.348;2022-11-20T03:46:30;98125.19;;;16.90;45.49
76156;BME280;64906;51.290;7.348;2022-11-20T03:48:56;98123.03;;;16.87;45.56
76156;BME280;64906;51.290;7.348;2022-11-20T03:51:24;98120.31;;;16.87;45.42
76156;BME280;64906;51.290;7.348;2022-11-20T03:53:51;98123.53;;;16.89;45.34
76156;BME280;64906;51.290;7.348;2022-11-20T03:56:20;98123.03;;;16.87;45.44
76156;BME280;64906;51.290;7.348;2022-11-20T03:58:45;98119.78;;;16.85;45.46
76156;BME280;64906;51.290;7.348;2022-11-20T04:01:18;98116.22;;;16.85;45.40
76156;BME280;64906;51.290;7.348;2022-11-20T04:03:44;98109.94;;;16.84;45.66
76156;BME280;64906;51.290;7.348;2022-11-20T04:06:18;98115.69;;;16.83;45.38
76156;BME280;64906;51.290;7.348;2022-11-20T04:08:44;98102.06;;;16.83;45.52
76156;BME280;64906;51.290;7.348;2022-11-20T04:11:11;98113.78;;;16.83;45.35
76156;BME280;64906;51.290;7.348;2022-11-20T04:13:37;98110.81;;;16.80;45.52
76156;BME280;64906;51.290;7.348;2022-11-20T04:16:02;98102.34;;;16.81;45.65
76156;BME280;64906;51.290;7.348;2022-11-20T04:18:28;98109.19;;;16.79;45.32
76156;BME280;64906;51.290;7.348;2022-11-20T04:20:53;98104.81;;;16.78;45.49
76156;BME280;64906;51.290;7.348;2022-11-20T04:23:18;98111.91;;;16.79;45.23
76156;BME280;64906;51.290;7.348;2022-11-20T04:25:44;98109.47;;;16.77;45.51
76156;BME280;64906;51.290;7.348;2022-11-20T04:28:09;98116.00;;;16.76;45.44
76156;BME280;64906;51.290;7.348;2022-11-20T04:30:34;98111.38;;;16.77;45.41
76156;BME280;64906;51.290;7.348;2022-11-20T04:33:00;98118.72;;;16.76;45.39
76156;BME280;64906;51.290;7.348;2022-11-20T04:35:25;98114.41;;;16.75;45.41
76156;BME280;64906;51.290;7.348;2022-11-20T04:37:53;98110.31;;;16.73;45.43
76156;BME280;64906;51.290;7.348;2022-11-20T04:40:18;98110.59;;;16.71;45.65
76156;BME280;64906;51.290;7.348;2022-11-20T04:42:44;98107.06;;;16.71;45.57
76156;BME280;64906;51.290;7.348;2022-11-20T04:45:09;98113.59;;;16.70;45.99
76156;BME280;64906;51.290;7.348;2022-11-20T04:47:34;98119.34;;;16.68;45.73
76156;BME280;64906;51.290;7.348;2022-11-20T04:50:00;98115.53;;;16.69;45.81
76156;BME280;64906;51.290;7.348;2022-11-20T04:52:25;98119.34;;;16.68;45.42
76156;BME280;64906;51.290;7.348;2022-11-20T04:54:50;98114.72;;;16.69;45.57
76156;BME280;64906;51.290;7.348;2022-11-20T04:57:18;98113.63;;;16.65;45.24
76156;BME280;64906;51.290;7.348;2022-11-20T04:59:43;98115.56;;;16.64;45.66
76156;BME280;64906;51.290;7.348;2022-11-20T05:02:08;98107.41;;;16.64;45.65
76156;BME280;64906;51.290;7.348;2022-11-20T05:04:34;98110.13;;;16.64;45.80
76156;BME280;64906;51.290;7.348;2022-11-20T05:06:59;98121.03;;;16.64;45.68
76156;BME280;64906;51.290;7.348;2022-11-20T05:09:24;98111.50;;;16.62;45.75
76156;BME280;64906;51.290;7.348;2022-11-20T05:11:49;98124.31;;;16.61;45.56
76156;BME280;64906;51.290;7.348;2022-11-20T05:14:15;98118.88;;;16.61;45.68
76156;BME280;64906;51.290;7.348;2022-11-20T05:16:40;98118.03;;;16.61;45.54
76156;BME280;64906;51.290;7.348;2022-11-20T05:19:05;98122.66;;;16.60;45.57
76156;BME280;64906;51.290;7.348;2022-11-20T05:21:31;98117.22;;;16.60;45.53
76156;BME280;64906;51.290;7.348;2022-11-20T05:23:57;98127.84;;;16.62;45.58
76156;BME280;64906;51.290;7.348;2022-11-20T05:26:23;98115.03;;;16.62;45.57
76156;BME280;64906;51.290;7.348;2022-11-20T05:28:49;98117.19;;;16.65;45.35
76156;BME280;64906;51.290;7.348;2022-11-20T05:31:19;98115.00;;;16.67;45.46
76156;BME280;64906;51.290;7.348;2022-11-20T05:33:45;98113.09;;;16.68;45.36
76156;BME280;64906;51.290;7.348;2022-11-20T05:36:12;98114.13;;;16.72;45.29
76156;BME280;64906;51.290;7.348;2022-11-20T05:38:38;98117.13;;;16.75;45.03
76156;BME280;64906;51.290;7.348;2022-11-20T05:41:09;98113.81;;;16.78;45.32
76156;BME280;64906;51.290;7.348;2022-11-20T05:43:36;98109.47;;;16.77;45.02
76156;BME280;64906;51.290;7.348;2022-11-20T05:46:03;98122.53;;;16.80;44.98
76156;BME280;64906;51.290;7.348;2022-11-20T05:48:29;98118.44;;;16.78;45.14
76156;BME280;64906;51.290;7.348;2022-11-20T05:50:56;98124.16;;;16.81;45.04
76156;BME280;64906;51.290;7.348;2022-11-20T05:53:22;98124.16;;;16.81;44.89
76156;BME280;64906;51.290;7.348;2022-11-20T05:55:59;98110.22;;;16.83;45.06
76156;BME280;64906;51.290;7.348;2022-11-20T05:58:24;98109.94;;;16.84;44.82
76156;BME280;64906;51.290;7.348;2022-11-20T06:00:50;98110.81;;;16.80;45.25
76156;BME280;64906;51.290;7.348;2022-11-20T06:03:15;98114.34;;;16.80;45.00
76156;BME280;64906;51.290;7.348;2022-11-20T06:05:40;98115.41;;;16.84;45.06
76156;BME280;64906;51.290;7.348;2022-11-20T06:08:05;98113.22;;;16.86;44.87
76156;BME280;64906;51.290;7.348;2022-11-20T06:10:31;98112.88;;;16.93;44.72
76156;BME280;64906;51.290;7.348;2022-11-20T06:12:59;98111.81;;;16.94;44.66
76156;BME280;64906;51.290;7.348;2022-11-20T06:15:25;98114.81;;;16.92;44.74
76156;BME280;64906;51.290;7.348;2022-11-20T06:17:54;98110.16;;;16.93;44.73
76156;BME280;64906;51.290;7.348;2022-11-20T06:20:20;98107.72;;;16.91;44.59
76156;BME280;64906;51.290;7.348;2022-11-20T06:22:46;98113.69;;;16.93;44.61
76156;BME280;64906;51.290;7.348;2022-11-20T06:25:11;98117.25;;;16.94;44.67
76156;BME280;64906;51.290;7.348;2022-11-20T06:27:37;98114.25;;;16.95;44.60
76156;BME280;64906;51.290;7.348;2022-11-20T06:30:03;98117.47;;;16.97;44.58
76156;BME280;64906;51.290;7.348;2022-11-20T06:32:28;98113.66;;;16.98;44.60
76156;BME280;64906;51.290;7.348;2022-11-20T06:34:53;98113.91;;;17.02;44.58
76156;BME280;64906;51.290;7.348;2022-11-20T06:37:19;98112.50;;;17.04;44.51
76156;BME280;64906;51.290;7.348;2022-11-20T06:39:44;98104.88;;;17.06;44.28
76156;BME280;64906;51.290;7.348;2022-11-20T06:42:09;98112.47;;;17.09;44.35
76156;BME280;64906;51.290;7.348;2022-11-20T06:44:35;98112.75;;;17.08;44.27
76156;BME280;64906;51.290;7.348;2022-11-20T06:47:00;98123.09;;;17.11;44.25
76156;BME280;64906;51.290;7.348;2022-11-20T06:49:26;98129.91;;;17.13;44.26
76156;BME280;64906;51.290;7.348;2022-11-20T06:51:51;98134.78;;;17.16;44.44
76156;BME280;64906;51.290;7.348;2022-11-20T06:54:16;98133.66;;;17.17;44.36
76156;BME280;64906;51.290;7.348;2022-11-20T06:56:41;98130.66;;;17.19;44.22
76156;BME280;64906;51.290;7.348;2022-11-20T06:59:07;98131.47;;;17.19;44.19
76156;BME280;64906;51.290;7.348;2022-11-20T07:01:32;98136.34;;;17.22;44.13
76156;BME280;64906;51.290;7.348;2022-11-20T07:03:57;98137.69;;;17.25;44.19
76156;BME280;64906;51.290;7.348;2022-11-20T07:06:23;98132.75;;;17.27;44.01
76156;BME280;64906;51.290;7.348;2022-11-20T07:08:50;98133.00;;;17.30;43.97
76156;BME280;64906;51.290;7.348;2022-11-20T07:11:17;98133.53;;;17.32;44.10
76156;BME280;64906;51.290;7.348;2022-11-20T07:13:42;98127.78;;;17.34;44.30
76156;BME280;64906;51.290;7.348;2022-11-20T07:16:08;98137.03;;;17.38;44.08
76156;BME280;64906;51.290;7.348;2022-11-20T07:18:33;98141.38;;;17.39;44.01
76156;BME280;64906;51.290;7.348;2022-11-20T07:21:03;98139.19;;;17.41;43.86
76156;BME280;64906;51.290;7.348;2022-11-20T07:23:30;98148.69;;;17.43;43.92
76156;BME280;64906;51.290;7.348;2022-11-20T07:25:55;98151.41;;;17.49;43.72
76156;BME280;64906;51.290;7.348;2022-11-20T07:28:21;98146.75;;;17.49;43.95
76156;BME280;64906;51.290;7.348;2022-11-20T07:30:50;98150.03;;;17.51;43.80
76156;BME280;64906;51.290;7.348;2022-11-20T07:33:16;98154.09;;;17.54;43.76
76156;BME280;64906;51.290;7.348;2022-11-20T07:35:41;98158.16;;;17.56;43.67
76156;BME280;64906;51.290;7.348;2022-11-20T07:38:06;98160.03;;;17.61;43.59
76156;BME280;64906;51.290;7.348;2022-11-20T07:40:33;98153.75;;;17.60;43.61
76156;BME280;64906;51.290;7.348;2022-11-20T07:42:58;98156.72;;;17.64;43.56
76156;BME280;64906;51.290;7.348;2022-11-20T07:45:24;98159.38;;;17.69;43.63
76156;BME280;64906;51.290;7.348;2022-11-20T07:47:50;98152.22;;;17.73;43.33
76156;BME280;64906;51.290;7.348;2022-11-20T07:50:16;98160.38;;;17.78;43.27
76156;BME280;64906;51.290;7.348;2022-11-20T07:52:42;98152.19;;;17.78;43.07
76156;BME280;64906;51.290;7.348;2022-11-20T07:55:08;98158.69;;;17.82;43.15
76156;BME280;64906;51.290;7.348;2022-11-20T07:57:34;98158.16;;;17.80;43.24
76156;BME280;64906;51.290;7.348;2022-11-20T07:59:59;98148.25;;;17.89;43.21
76156;BME280;64906;51.290;7.348;2022-11-20T08:02:24;98157.22;;;17.89;43.06
76156;BME280;64906;51.290;7.348;2022-11-20T08:04:50;98158.59;;;17.92;43.01
76156;BME280;64906;51.290;7.348;2022-11-20T08:07:15;98153.66;;;17.94;43.12
76156;BME280;64906;51.290;7.348;2022-11-20T08:09:40;98151.13;;;17.97;42.79
76156;BME280;64906;51.290;7.348;2022-11-20T08:12:06;98144.88;;;17.97;42.96
76156;BME280;64906;51.290;7.348;2022-11-20T08:14:50;98151.38;;;18.01;42.95
76156;BME280;64906;51.290;7.348;2022-11-20T08:17:15;98149.16;;;18.03;42.88
76156;BME280;64906;51.290;7.348;2022-11-20T08:19:40;98140.91;;;18.08;42.92
76156;BME280;64906;51.290;7.348;2022-11-20T08:22:06;98137.59;;;18.11;42.88
76156;BME280;64906;51.290;7.348;2022-11-20T08:24:31;98133.19;;;18.15;43.12
76156;BME280;64906;51.290;7.348;2022-11-20T08:26:57;98136.94;;;18.19;42.70
76156;BME280;64906;51.290;7.348;2022-11-20T08:29:24;98130.59;;;18.23;43.00
76156;BME280;64906;51.290;7.348;2022-11-20T08:31:49;98133.25;;;18.28;43.03
76156;BME280;64906;51.290;7.348;2022-11-20T08:34:15;98128.09;;;18.27;43.14
76156;BME280;64906;51.290;7.348;2022-11-20T08:36:40;98124.25;;;18.28;43.12
76156;BME280;64906;51.290;7.348;2022-11-20T08:39:05;98125.00;;;18.33;43.07
76156;BME280;64906;51.290;7.348;2022-11-20T08:41:31;98124.91;;;18.38;43.23
76156;BME280;64906;51.290;7.348;2022-11-20T08:44:02;98120.84;;;18.41;43.59
76156;BME280;64906;51.290;7.348;2022-11-20T08:46:32;98129.25;;;18.44;43.67
76156;BME280;64906;51.290;7.348;2022-11-20T08:48:59;98132.19;;;18.48;43.65
76156;BME280;64906;51.290;7.348;2022-11-20T08:51:25;98125.34;;;18.50;43.71
76156;BME280;64906;51.290;7.348;2022-11-20T08:53:50;98135.97;;;18.52;43.84
76156;BME280;64906;51.290;7.348;2022-11-20T08:56:16;98138.09;;;18.55;43.58
76156;BME280;64906;51.290;7.348;2022-11-20T08:58:42;98135.06;;;18.56;43.68
76156;BME280;64906;51.290;7.348;2022-11-20T09:01:07;98134.28;;;18.56;43.78
76156;BME280;64906;51.290;7.348;2022-11-20T09:03:33;98133.16;;;18.57;43.79
76156;BME280;64906;51.290;7.348;2022-11-20T09:06:03;98139.47;;;18.57;43.66
76156;BME280;64906;51.290;7.348;2022-11-20T09:08:29;98139.47;;;18.57;43.72
76156;BME280;64906;51.290;7.348;2022-11-20T09:10:56;98140.78;;;18.60;43.60
76156;BME280;64906;51.290;7.348;2022-11-20T09:13:23;98144.84;;;18.62;43.67
76156;BME280;64906;51.290;7.348;2022-11-20T09:16:01;98146.25;;;18.60;43.37
76156;BME280;64906;51.290;7.348;2022-11-20T09:18:28;98145.94;;;18.61;43.36
76156;BME280;64906;51.290;7.348;2022-11-20T09:21:01;98144.56;;;18.64;43.46
76156;BME280;64906;51.290;7.348;2022-11-20T09:23:30;98137.97;;;18.65;43.64
76156;BME280;64906;51.290;7.348;2022-11-20T09:25:56;98145.88;;;18.66;43.68
76156;BME280;64906;51.290;7.348;2022-11-20T09:28:27;98147.78;;;18.66;43.81
76156;BME280;64906;51.290;7.348;2022-11-20T09:30:52;98147.22;;;18.69;44.07
76156;BME280;64906;51.290;7.348;2022-11-20T09:33:18;98144.25;;;18.65;44.22
76156;BME280;64906;51.290;7.348;2022-11-20T09:35:44;98142.84;;;18.68;44.60
76156;BME280;64906;51.290;7.348;2022-11-20T09:38:09;98134.63;;;18.68;44.13
76156;BME280;64906;51.290;7.348;2022-11-20T09:40:38;98137.44;;;18.63;44.47
76156;BME280;64906;51.290;7.348;2022-11-20T09:43:19;98124.91;;;18.62;44.32
76156;BME280;64906;51.290;7.348;2022-11-20T09:45:58;98129.84;;;18.60;44.18
76156;BME280;64906;51.290;7.348;2022-11-20T09:56:08;98109.38;;;18.57;44.07
76156;BME280;64906;51.290;7.348;2022-11-20T09:58:42;98113.50;;;18.55;44.14
76156;BME280;64906;51.290;7.348;2022-11-20T10:01:20;98118.44;;;18.53;44.33
76156;BME280;64906;51.290;7.348;2022-11-20T10:03:56;98116.84;;;18.52;44.21
76156;BME280;64906;51.290;7.348;2022-11-20T10:06:44;98110.25;;;18.53;43.96
76156;BME280;64906;51.290;7.348;2022-11-20T10:20:24;98094.91;;;18.57;44.04
76156;BME280;64906;51.290;7.348;2022-11-20T10:25:40;98100.59;;;18.60;43.71
76156;BME280;64906;51.290;7.348;2022-11-20T10:28:28;98088.53;;;18.61;43.61
76156;BME280;64906;51.290;7.348;2022-11-20T10:31:00;98086.63;;;18.62;43.45
76156;BME280;64906;51.290;7.348;2022-11-20T10:33:27;98085.72;;;18.66;43.56
76156;BME280;64906;51.290;7.348;2022-11-20T10:38:39;98078.78;;;18.74;43.70
76156;BME280;64906;51.290;7.348;2022-11-20T10:41:05;98078.47;;;18.76;43.64
76156;BME280;64906;51.290;7.348;2022-11-20T10:44:14;98080.03;;;18.82;43.82
76156;BME280;64906;51.290;7.348;2022-11-20T10:46:43;98087.91;;;18.83;43.96
76156;BME280;64906;51.290;7.348;2022-11-20T10:49:13;98079.41;;;18.85;44.05
76156;BME280;64906;51.290;7.348;2022-11-20T10:52:25;98078.22;;;18.91;44.33
76156;BME280;64906;51.290;7.348;2022-11-20T10:57:53;98068.63;;;18.93;44.24
76156;BME280;64906;51.290;7.348;2022-11-20T11:00:20;98063.34;;;18.97;44.05
76156;BME280;64906;51.290;7.348;2022-11-20T11:02:48;98055.47;;;18.95;44.14
76156;BME280;64906;51.290;7.348;2022-11-20T11:05:27;98048.56;;;18.98;44.01
76156;BME280;64906;51.290;7.348;2022-11-20T11:07:57;98052.41;;;18.97;44.02
76156;BME280;64906;51.290;7.348;2022-11-20T11:10:39;98060.00;;;19.00;44.14
76156;BME280;64906;51.290;7.348;2022-11-20T11:13:19;98061.09;;;18.99;44.15
76156;BME280;64906;51.290;7.348;2022-11-20T11:15:44;98054.84;;;18.98;44.13
76156;BME280;64906;51.290;7.348;2022-11-20T11:18:11;98053.22;;;18.97;44.13
76156;BME280;64906;51.290;7.348;2022-11-20T11:20:37;98043.91;;;18.98;44.29
76156;BME280;64906;51.290;7.348;2022-11-20T11:23:03;98040.06;;;18.99;44.37
76156;BME280;64906;51.290;7.348;2022-11-20T11:25:34;98047.16;;;19.00;44.47
76156;BME280;64906;51.290;7.348;2022-11-20T11:28:18;98035.41;;;19.00;44.46
76156;BME280;64906;51.290;7.348;2022-11-20T11:30:45;98033.50;;;19.00;44.43
76156;BME280;64906;51.290;7.348;2022-11-20T11:33:18;98026.38;;;18.99;44.34
76156;BME280;64906;51.290;7.348;2022-11-20T11:35:47;98019.00;;;19.00;44.45
76156;BME280;64906;51.290;7.348;2022-11-20T11:38:16;98026.91;;;19.01;44.50
76156;BME280;64906;51.290;7.348;2022-11-20T11:40:43;98017.56;;;19.02;44.32
76156;BME280;64906;51.290;7.348;2022-11-20T11:43:19;98006.94;;;19.01;44.47
76156;BME280;64906;51.290;7.348;2022-11-20T11:46:31;98004.78;;;18.98;44.29
76156;BME280;64906;51.290;7.348;2022-11-20T11:57:26;97982.19;;;18.92;43.74
76156;BME280;64906;51.290;7.348;2022-11-20T12:02:38;97961.13;;;18.93;43.74
76156;BME280;64906;51.290;7.348;2022-11-20T12:05:53;97969.34;;;18.93;43.76
76156;BME280;64906;51.290;7.348;2022-11-20T12:08:31;97966.28;;;18.94;44.59
76156;BME280;64906;51.290;7.348;2022-11-20T12:11:10;97970.16;;;18.93;45.73
76156;BME280;64906;51.290;7.348;2022-11-20T12:13:44;97967.13;;;18.95;45.76
76156;BME280;64906;51.290;7.348;2022-11-20T12:16:15;97970.38;;;18.97;46.34
76156;BME280;64906;51.290;7.348;2022-11-20T12:18:41;97963.25;;;18.96;46.33
76156;BME280;64906;51.290;7.348;2022-11-20T12:21:20;97955.34;;;18.94;46.61
76156;BME280;64906;51.290;7.348;2022-11-20T12:43:01;97935.91;;;18.82;42.94
76156;BME280;64906;51.290;7.348;2022-11-20T12:49:12;97938.56;;;18.87;45.96
76156;BME280;64906;51.290;7.348;2022-11-20T12:54:03;97939.13;;;18.84;45.80
76156;BME280;64906;51.290;7.348;2022-11-20T12:57:03;97935.91;;;18.82;46.04
76156;BME280;64906;51.290;7.348;2022-11-20T13:00:01;97922.72;;;18.84;45.90
76156;BME280;64906;51.290;7.348;2022-11-20T13:05:38;97907.97;;;18.85;45.69
76156;BME280;64906;51.290;7.348;2022-11-20T13:08:41;97900.84;;;18.84;45.68
76156;BME280;64906;51.290;7.348;2022-11-20T13:11:41;97903.59;;;18.84;45.57
76156;BME280;64906;51.290;7.348;2022-11-20T13:19:12;97874.44;;;18.93;45.26
76156;BME280;64906;51.290;7.348;2022-11-20T13:21:43;97869.38;;;18.87;45.58
76156;BME280;64906;51.290;7.348;2022-11-20T13:27:21;97860.75;;;18.80;45.37
76156;BME280;64906;51.290;7.348;2022-11-20T13:32:29;97845.25;;;18.75;45.46
76156;BME280;64906;51.290;7.348;2022-11-20T13:35:08;97839.19;;;18.78;45.36
76156;BME280;64906;51.290;7.348;2022-11-20T13:37:36;97834.63;;;18.73;45.45
76156;BME280;64906;51.290;7.348;2022-11-20T13:42:37;97843.34;;;18.76;45.04
76156;BME280;64906;51.290;7.348;2022-11-20T13:45:11;97839.28;;;18.73;45.27
76156;BME280;64906;51.290;7.348;2022-11-20T13:47:37;97835.16;;;18.76;43.01
76156;BME280;64906;51.290;7.348;2022-11-20T13:50:04;97835.72;;;18.72;45.15
76156;BME280;64906;51.290;7.348;2022-11-20T14:02:36;97819.03;;;18.74;44.63
76156;BME280;64906;51.290;7.348;2022-11-20T14:05:03;97823.78;;;18.68;44.60
76156;BME280;64906;51.290;7.348;2022-11-20T14:07:39;97813.38;;;18.70;44.62
76156;BME280;64906;51.290;7.348;2022-11-20T14:10:06;97820.75;;;18.70;44.68
76156;BME280;64906;51.290;7.348;2022-11-20T14:12:33;97811.72;;;18.69;44.43
76156;BME280;64906;51.290;7.348;2022-11-20T14:14:59;97794.03;;;18.67;44.59
76156;BME280;64906;51.290;7.348;2022-11-20T14:17:34;97798.38;;;18.68;44.65
76156;BME280;64906;51.290;7.348;2022-11-20T14:20:12;97791.28;;;18.67;44.39
76156;BME280;64906;51.290;7.348;2022-11-20T14:22:48;97785.31;;;18.65;44.80
76156;BME280;64906;51.290;7.348;2022-11-20T14:27:44;97776.31;;;18.64;44.54
76156;BME280;64906;51.290;7.348;2022-11-20T14:30:15;97777.13;;;18.51;44.60
76156;BME280;64906;51.290;7.348;2022-11-20T14:32:43;97772.25;;;18.62;44.54
76156;BME280;64906;51.290;7.348;2022-11-20T14:35:15;97761.44;;;18.70;44.42
76156;BME280;64906;51.290;7.348;2022-11-20T14:37:44;97754.94;;;18.66;44.67
76156;BME280;64906;51.290;7.348;2022-11-20T14:42:47;97751.50;;;18.61;45.11
76156;BME280;64906;51.290;7.348;2022-11-20T14:45:12;97743.28;;;18.61;45.05
76156;BME280;64906;51.290;7.348;2022-11-20T14:47:39;97742.59;;;18.69;45.02
76156;BME280;64906;51.290;7.348;2022-11-20T14:50:12;97735.00;;;18.66;45.02